createdAt,value
2022-10-13T00:01:15.591Z,8.27
2022-10-13T00:03:46.119Z,8.75
2022-10-13T00:06:15.150Z,7.57
2022-10-13T00:08:43.303Z,9.55
2022-10-13T00:11:14.586Z,9.30
2022-10-13T00:13:42.860Z,8.88
2022-10-13T00:16:11.638Z,9.00
2022-10-13T00:18:39.290Z,8.82
2022-10-13T00:21:12.290Z,9.13
2022-10-13T00:23:40.511Z,7.82
2022-10-13T00:26:11.817Z,9.70
2022-10-13T00:28:40.044Z,9.88
2022-10-13T00:31:24.340Z,9.38
2022-10-13T00:33:52.810Z,9.02
2022-10-13T00:36:21.202Z,8.65
2022-10-13T00:38:48.626Z,8.20
2022-10-13T00:41:16.170Z,9.55
2022-10-13T00:43:58.129Z,9.45
2022-10-13T00:46:29.002Z,9.80
2022-10-13T00:48:59.341Z,8.80
2022-10-13T00:51:30.605Z,9.80
2022-10-13T00:53:59.211Z,8.80
2022-10-13T00:56:27.479Z,8.65
2022-10-13T00:58:57.115Z,10.50
2022-10-13T01:01:24.623Z,9.55
2022-10-13T01:03:52.647Z,9.45
2022-10-13T01:06:23.605Z,9.15
2022-10-13T01:08:51.579Z,8.67
2022-10-13T01:11:35.963Z,9.02
2022-10-13T01:14:16.932Z,7.97
2022-10-13T01:17:12.672Z,9.85
2022-10-13T01:19:45.827Z,8.35
2022-10-13T01:22:31.527Z,8.63
2022-10-13T01:25:26.680Z,7.88
2022-10-13T01:28:09.903Z,8.88
2022-10-13T01:30:45.479Z,8.63
2022-10-13T01:33:27.698Z,8.80
2022-10-13T01:36:06.401Z,7.47
2022-10-13T01:38:46.057Z,8.95
2022-10-13T01:41:37.680Z,8.27
2022-10-13T01:44:30.721Z,9.02
2022-10-13T01:46:59.346Z,8.80
2022-10-13T01:49:31.564Z,8.48
2022-10-13T01:52:03.969Z,7.97
2022-10-13T01:56:58.843Z,8.57
2022-10-13T01:59:29.486Z,8.18
2022-10-13T02:02:22.263Z,7.53
2022-10-13T02:05:03.649Z,9.43
2022-10-13T02:07:48.428Z,9.10
2022-10-13T02:10:24.635Z,9.18
2022-10-13T02:12:58.475Z,9.38
2022-10-13T02:15:38.240Z,7.13
2022-10-13T02:18:05.967Z,8.35
2022-10-13T02:20:34.086Z,8.27
2022-10-13T02:23:10.270Z,8.15
2022-10-13T02:25:38.129Z,7.78
2022-10-13T02:28:06.567Z,8.18
2022-10-13T02:30:35.383Z,9.70
2022-10-13T02:33:03.852Z,9.00
2022-10-13T02:35:32.852Z,8.05
2022-10-13T02:38:00.715Z,7.95
2022-10-13T02:40:28.547Z,11.10
2022-10-13T02:42:56.022Z,8.85
2022-10-13T02:45:23.965Z,9.45
2022-10-13T02:47:51.452Z,10.63
2022-10-13T02:50:19.072Z,8.05
2022-10-13T02:52:46.542Z,8.63
2022-10-13T02:55:14.048Z,8.85
2022-10-13T02:57:41.525Z,9.13
2022-10-13T03:00:09.933Z,9.63
2022-10-13T03:02:37.443Z,9.50
2022-10-13T03:05:05.386Z,9.80
2022-10-13T03:07:32.899Z,10.50
2022-10-13T03:10:00.369Z,8.88
2022-10-13T03:12:27.801Z,8.10
2022-10-13T03:14:55.251Z,8.43
2022-10-13T03:17:22.728Z,8.45
2022-10-13T03:19:50.165Z,9.90
2022-10-13T03:22:18.353Z,8.57
2022-10-13T03:24:46.008Z,10.43
2022-10-13T03:27:13.703Z,9.52
2022-10-13T03:29:41.166Z,8.63
2022-10-13T03:32:08.617Z,8.93
2022-10-13T03:34:36.051Z,9.38
2022-10-13T03:37:03.553Z,10.38
2022-10-13T03:39:31.008Z,8.32
2022-10-13T03:41:58.494Z,9.10
2022-10-13T03:44:26.009Z,10.18
2022-10-13T03:46:54.140Z,8.32
2022-10-13T03:49:21.591Z,8.80
2022-10-13T03:51:49.025Z,8.32
2022-10-13T03:54:16.890Z,9.50
2022-10-13T03:56:44.345Z,9.90
2022-10-13T03:59:16.597Z,9.68
2022-10-13T04:04:12.627Z,9.40
2022-10-13T04:06:40.123Z,9.05
2022-10-13T04:09:07.887Z,9.52
2022-10-13T04:11:35.369Z,9.90
2022-10-13T04:14:02.812Z,9.63
2022-10-13T04:16:32.099Z,9.57
2022-10-13T04:19:02.524Z,10.80
2022-10-13T04:21:33.226Z,9.20
2022-10-13T04:24:01.684Z,9.75
2022-10-13T04:26:31.165Z,9.70
2022-10-13T04:28:58.681Z,9.77
2022-10-13T04:31:28.878Z,10.27
2022-10-13T04:33:56.534Z,9.68
2022-10-13T04:36:24.695Z,9.70
2022-10-13T04:38:52.913Z,9.80
2022-10-13T04:41:20.965Z,10.73
2022-10-13T04:43:50.146Z,10.23
2022-10-13T04:46:21.075Z,10.35
2022-10-13T04:48:48.796Z,10.45
2022-10-13T04:51:19.237Z,9.23
2022-10-13T04:53:46.836Z,11.98
2022-10-13T04:56:16.987Z,10.20
2022-10-13T04:58:45.742Z,11.38
2022-10-13T05:01:21.167Z,10.38
2022-10-13T05:03:58.399Z,9.98
2022-10-13T05:06:28.940Z,10.30
2022-10-13T05:08:57.305Z,9.27
2022-10-13T05:11:26.580Z,9.98
2022-10-13T05:13:54.382Z,10.30
2022-10-13T05:16:23.123Z,10.75
2022-10-13T05:18:52.295Z,9.25
2022-10-13T05:21:23.150Z,11.25
2022-10-13T05:23:53.924Z,10.07
2022-10-13T05:26:21.467Z,10.73
2022-10-13T05:28:49.219Z,10.65
2022-10-13T05:31:20.448Z,10.50
2022-10-13T05:33:49.322Z,11.63
2022-10-13T05:36:19.701Z,12.13
2022-10-13T05:38:52.161Z,11.05
2022-10-13T05:41:20.371Z,11.30
2022-10-13T05:43:48.254Z,11.95
2022-10-13T05:46:16.337Z,11.80
2022-10-13T05:48:43.867Z,11.45
2022-10-13T05:51:16.571Z,11.57
2022-10-13T05:53:55.343Z,12.45
2022-10-13T05:56:28.573Z,12.32
2022-10-13T05:59:05.699Z,11.88
2022-10-13T06:01:37.646Z,12.40
2022-10-13T06:04:09.547Z,12.23
2022-10-13T06:06:37.222Z,12.60
2022-10-13T06:09:04.709Z,12.07
2022-10-13T06:11:32.278Z,14.10
2022-10-13T06:13:59.755Z,12.63
2022-10-13T06:16:27.294Z,12.77
2022-10-13T06:18:54.876Z,12.18
2022-10-13T06:21:22.606Z,12.90
2022-10-13T06:23:50.151Z,12.13
2022-10-13T06:26:17.714Z,13.23
2022-10-13T06:28:49.729Z,11.93
2022-10-13T06:31:18.332Z,15.38
2022-10-13T06:33:45.971Z,12.98
2022-10-13T06:36:13.426Z,13.38
2022-10-13T06:38:40.996Z,13.50
2022-10-13T06:41:08.582Z,12.63
2022-10-13T06:43:40.454Z,14.73
2022-10-13T06:46:08.366Z,14.88
2022-10-13T06:48:36.557Z,14.95
2022-10-13T06:51:07.077Z,14.68
2022-10-13T06:53:35.146Z,15.73
2022-10-13T06:56:04.460Z,16.05
2022-10-13T06:58:32.085Z,16.05
2022-10-13T07:00:59.695Z,17.42
2022-10-13T07:03:27.412Z,17.02
2022-10-13T07:05:55.199Z,16.30
2022-10-13T07:08:23.080Z,17.73
2022-10-13T07:10:50.624Z,18.38
2022-10-13T07:13:18.245Z,17.35
2022-10-13T07:15:45.820Z,19.50
2022-10-13T07:18:13.395Z,18.30
2022-10-13T07:20:40.849Z,18.85
2022-10-13T07:23:08.405Z,18.02
2022-10-13T07:25:35.831Z,18.50
2022-10-13T07:28:03.386Z,19.85
2022-10-13T07:30:30.907Z,19.80
2022-10-13T07:33:00.050Z,20.38
2022-10-13T07:35:30.649Z,20.20
2022-10-13T07:37:58.605Z,17.30
2022-10-13T07:40:26.694Z,21.13
2022-10-13T07:42:54.302Z,20.15
2022-10-13T07:45:21.751Z,19.63
2022-10-13T07:47:49.239Z,19.55
2022-10-13T07:50:16.981Z,18.58
2022-10-13T07:52:44.972Z,18.13
2022-10-13T07:55:12.491Z,17.92
2022-10-13T07:57:39.967Z,18.85
2022-10-13T08:00:08.460Z,18.42
2022-10-13T08:02:35.970Z,17.20
2022-10-13T08:05:04.476Z,18.25
2022-10-13T08:07:31.934Z,16.88
2022-10-13T08:09:59.405Z,15.45
2022-10-13T08:12:26.985Z,17.67
2022-10-13T08:14:54.478Z,15.55
2022-10-13T08:17:22.395Z,15.38
2022-10-13T08:19:52.035Z,16.52
2022-10-13T08:22:19.537Z,15.25
2022-10-13T08:24:47.000Z,14.23
2022-10-13T08:27:21.611Z,16.45
2022-10-13T08:29:49.402Z,15.73
2022-10-13T08:32:18.357Z,15.98
2022-10-13T08:34:46.069Z,14.90
2022-10-13T08:37:19.008Z,15.00
2022-10-13T08:39:46.722Z,14.20
2022-10-13T08:42:20.720Z,16.00
2022-10-13T08:47:47.797Z,15.23
2022-10-13T08:50:18.898Z,15.82
2022-10-13T08:52:56.242Z,14.70
2022-10-13T08:55:36.312Z,16.50
2022-10-13T08:58:12.252Z,16.80
2022-10-13T09:00:40.009Z,16.05
2022-10-13T09:03:28.946Z,17.52
2022-10-13T09:06:15.256Z,16.00
2022-10-13T09:09:03.330Z,14.25
2022-10-13T09:11:36.584Z,14.95
2022-10-13T09:14:10.000Z,15.02
2022-10-13T09:16:39.907Z,15.18
2022-10-13T09:19:24.638Z,15.80
2022-10-13T09:21:54.951Z,13.88
2022-10-13T09:24:24.723Z,16.50
2022-10-13T09:27:05.906Z,15.68
2022-10-13T09:29:33.504Z,15.65
2022-10-13T09:32:20.376Z,13.85
2022-10-13T09:34:49.189Z,14.95
2022-10-13T09:37:23.022Z,13.32
2022-10-13T09:40:20.371Z,13.75
2022-10-13T09:42:53.779Z,12.77
2022-10-13T09:45:23.214Z,11.88
2022-10-13T09:47:54.241Z,11.98
2022-10-13T09:50:25.683Z,11.93
2022-10-13T09:52:53.984Z,11.02
2022-10-13T09:55:32.603Z,12.60
2022-10-13T09:58:16.817Z,11.82
2022-10-13T10:00:46.075Z,10.98
2022-10-13T10:03:23.353Z,9.93
2022-10-13T10:06:00.980Z,9.88
2022-10-13T10:09:08.888Z,9.27
2022-10-13T10:11:42.561Z,8.75
2022-10-13T10:14:26.042Z,8.45
2022-10-13T10:17:32.385Z,8.27
2022-10-13T10:20:18.650Z,9.07
2022-10-13T10:22:58.812Z,8.70
2022-10-13T10:25:43.624Z,7.65
2022-10-13T10:28:29.088Z,8.82
2022-10-13T10:31:03.747Z,8.85
2022-10-13T10:34:15.728Z,8.48
2022-10-13T10:37:31.235Z,8.50
2022-10-13T10:40:27.996Z,9.07
2022-10-13T10:42:55.502Z,8.70
2022-10-13T10:45:29.874Z,8.23
2022-10-13T10:48:02.438Z,9.18
2022-10-13T10:50:33.285Z,8.70
2022-10-13T10:53:12.605Z,9.60
2022-10-13T10:56:06.013Z,8.65
2022-10-13T10:58:53.657Z,9.18
2022-10-13T11:01:28.823Z,10.75
2022-10-13T11:04:23.154Z,9.57
2022-10-13T11:06:50.610Z,9.90
2022-10-13T11:09:43.908Z,9.23
2022-10-13T11:12:20.774Z,10.32
2022-10-13T11:15:03.709Z,9.20
2022-10-13T11:17:33.012Z,9.50
2022-10-13T11:20:01.633Z,9.95
2022-10-13T11:22:31.146Z,9.75
2022-10-13T11:25:21.337Z,11.70
2022-10-13T11:27:48.871Z,10.15
2022-10-13T11:30:40.556Z,11.23
2022-10-13T11:33:41.844Z,10.87
2022-10-13T11:36:32.827Z,10.25
2022-10-13T11:39:21.603Z,9.48
2022-10-13T11:42:19.593Z,10.75
2022-10-13T11:45:26.226Z,9.95
2022-10-13T11:48:03.654Z,10.43
2022-10-13T11:51:16.519Z,10.70
2022-10-13T11:54:07.317Z,11.13
2022-10-13T11:56:54.235Z,11.00
2022-10-13T11:59:22.709Z,11.77
2022-10-13T12:01:55.392Z,10.60
2022-10-13T12:04:24.891Z,12.85
2022-10-13T12:07:02.640Z,11.10
2022-10-13T12:09:32.440Z,11.73
2022-10-13T12:12:07.437Z,11.80
2022-10-13T12:14:44.119Z,12.38
2022-10-13T12:17:23.780Z,9.80
2022-10-13T12:19:52.692Z,11.07
2022-10-13T12:22:20.442Z,11.02
2022-10-13T12:25:06.044Z,10.63
2022-10-13T12:27:48.767Z,9.15
2022-10-13T12:30:36.227Z,11.10
2022-10-13T12:33:05.499Z,11.38
2022-10-13T12:35:34.590Z,9.55
2022-10-13T12:38:06.102Z,11.50
2022-10-13T12:40:35.436Z,9.68
2022-10-13T12:43:05.164Z,11.80
2022-10-13T12:45:35.413Z,9.75
2022-10-13T12:48:02.992Z,9.45
2022-10-13T12:50:37.800Z,9.05
2022-10-13T12:53:27.982Z,9.45
2022-10-13T12:56:01.318Z,9.25
2022-10-13T12:58:32.527Z,8.48
2022-10-13T13:01:09.015Z,9.20
2022-10-13T13:03:38.738Z,9.25
2022-10-13T13:06:16.297Z,9.68
2022-10-13T13:08:44.492Z,11.07
2022-10-13T13:11:34.195Z,9.27
2022-10-13T13:14:47.391Z,9.73
2022-10-13T13:17:38.469Z,10.40
2022-10-13T13:20:22.811Z,10.43
2022-10-13T13:22:50.986Z,9.88
2022-10-13T13:25:18.585Z,9.38
2022-10-13T13:27:46.226Z,10.57
2022-10-13T13:30:15.997Z,10.13
2022-10-13T13:32:43.877Z,9.10
2022-10-13T13:35:11.912Z,10.30
2022-10-13T13:37:49.806Z,10.32
2022-10-13T13:40:23.030Z,10.95
2022-10-13T13:42:50.496Z,11.48
2022-10-13T13:45:20.368Z,10.82
2022-10-13T13:47:48.189Z,10.02
2022-10-13T13:50:23.259Z,11.35
2022-10-13T13:52:50.837Z,10.05
2022-10-13T13:55:18.874Z,11.25
2022-10-13T13:57:46.417Z,10.60
2022-10-13T14:00:16.194Z,11.32
2022-10-13T14:02:44.733Z,11.65
2022-10-13T14:05:12.632Z,12.07
2022-10-13T14:07:41.201Z,11.73
2022-10-13T14:10:10.493Z,10.05
2022-10-13T14:12:37.999Z,12.40
2022-10-13T14:15:06.045Z,10.85
2022-10-13T14:17:33.549Z,11.63
2022-10-13T14:20:01.195Z,12.82
2022-10-13T14:22:28.847Z,12.40
2022-10-13T14:24:56.311Z,12.90
2022-10-13T14:27:23.923Z,12.77
2022-10-13T14:29:51.433Z,12.48
2022-10-13T14:32:19.327Z,14.02
2022-10-13T14:34:47.137Z,13.38
2022-10-13T14:37:14.730Z,14.40
2022-10-13T14:39:42.265Z,12.93
2022-10-13T14:42:09.795Z,14.20
2022-10-13T14:44:37.267Z,12.77
2022-10-13T14:47:04.754Z,11.50
2022-10-13T14:49:32.226Z,13.55
2022-10-13T14:51:59.815Z,12.88
2022-10-13T14:54:27.423Z,12.68
2022-10-13T14:56:55.006Z,13.85
2022-10-13T14:59:22.757Z,12.48
2022-10-13T15:01:50.725Z,12.27
2022-10-13T15:04:18.220Z,12.98
2022-10-13T15:06:45.756Z,11.82
2022-10-13T15:09:13.325Z,13.45
2022-10-13T15:11:40.810Z,15.60
2022-10-13T15:14:09.745Z,13.38
2022-10-13T15:16:37.978Z,12.30
2022-10-13T15:19:06.103Z,12.02
2022-10-13T15:21:33.691Z,12.93
2022-10-13T15:24:01.416Z,12.35
2022-10-13T15:26:28.968Z,12.02
2022-10-13T15:28:56.519Z,12.90
2022-10-13T15:31:24.775Z,12.13
2022-10-13T15:33:54.610Z,12.85
2022-10-13T15:36:23.550Z,12.38
2022-10-13T15:38:52.406Z,12.30
2022-10-13T15:41:21.426Z,11.38
2022-10-13T15:43:49.238Z,11.45
2022-10-13T15:46:23.963Z,11.18
2022-10-13T15:48:53.275Z,9.60
2022-10-13T15:51:22.539Z,9.10
2022-10-13T15:53:50.190Z,10.02
2022-10-13T15:56:18.387Z,8.73
2022-10-13T15:58:46.470Z,9.75
2022-10-13T16:01:15.073Z,9.68
2022-10-13T16:03:43.156Z,9.90
2022-10-13T16:06:13.141Z,10.80
2022-10-13T16:08:43.954Z,10.68
2022-10-13T16:11:14.183Z,9.63
2022-10-13T16:13:42.246Z,10.50
2022-10-13T16:16:10.921Z,12.88
2022-10-13T16:18:40.201Z,12.30
2022-10-13T16:21:17.283Z,11.40
2022-10-13T16:23:46.347Z,10.05
2022-10-13T16:26:14.038Z,10.35
2022-10-13T16:28:41.802Z,10.05
2022-10-13T16:31:16.013Z,9.93
2022-10-13T16:33:45.225Z,9.90
2022-10-13T16:36:15.885Z,8.60
2022-10-13T16:38:44.814Z,8.10
2022-10-13T16:41:15.325Z,7.72
2022-10-13T16:43:43.827Z,9.00
2022-10-13T16:46:14.125Z,7.07
2022-10-13T16:48:43.413Z,7.68
2022-10-13T16:51:15.292Z,6.60
2022-10-13T16:53:43.219Z,7.63
2022-10-13T16:56:10.846Z,7.20
2022-10-13T16:58:43.240Z,6.30
2022-10-13T17:01:11.377Z,6.47
2022-10-13T17:03:40.322Z,7.88
2022-10-13T17:06:08.125Z,7.05
2022-10-13T17:08:37.139Z,8.30
2022-10-13T17:11:05.974Z,8.57
2022-10-13T17:13:35.237Z,8.70
2022-10-13T17:16:03.079Z,8.40
2022-10-13T17:18:30.647Z,7.78
2022-10-13T17:21:03.061Z,8.25
2022-10-13T17:23:31.841Z,7.10
2022-10-13T17:26:05.038Z,6.97
2022-10-13T17:28:33.874Z,6.57
2022-10-13T17:31:09.333Z,7.30
2022-10-13T17:33:38.304Z,7.30
2022-10-13T17:36:13.874Z,6.93
2022-10-13T17:38:41.503Z,5.90
2022-10-13T17:41:10.142Z,6.57
2022-10-13T17:43:39.697Z,5.40
2022-10-13T17:46:35.786Z,5.03
2022-10-13T17:49:04.347Z,3.88
2022-10-13T17:51:31.796Z,3.63
2022-10-13T17:54:00.663Z,3.63
2022-10-13T17:56:29.416Z,4.95
2022-10-13T17:58:57.080Z,5.60
2022-10-13T18:01:26.579Z,5.85
2022-10-13T18:03:56.760Z,6.53
2022-10-13T18:06:24.581Z,6.35
2022-10-13T18:08:52.369Z,7.13
2022-10-13T18:11:22.779Z,7.60
2022-10-13T18:13:51.395Z,6.43
2022-10-13T18:16:22.656Z,7.18
2022-10-13T18:18:51.812Z,6.88
2022-10-13T18:21:22.473Z,7.82
2022-10-13T18:23:50.222Z,5.93
2022-10-13T18:26:19.425Z,8.65
2022-10-13T18:28:49.242Z,8.30
2022-10-13T18:31:25.372Z,7.45
2022-10-13T18:33:53.252Z,7.65
2022-10-13T18:36:23.477Z,7.30
2022-10-13T18:38:55.748Z,7.53
2022-10-13T18:43:52.156Z,8.07
2022-10-13T18:46:20.029Z,7.68
2022-10-13T18:48:47.470Z,8.75
2022-10-13T18:51:17.285Z,9.05
2022-10-13T18:53:48.092Z,9.82
2022-10-13T18:56:19.277Z,10.07
2022-10-13T18:58:47.469Z,11.45
2022-10-13T19:01:20.313Z,11.52
2022-10-13T19:03:49.143Z,12.27
2022-10-13T19:06:17.807Z,11.07
2022-10-13T19:08:46.705Z,14.95
2022-10-13T19:11:19.318Z,13.25
2022-10-13T19:13:47.724Z,12.85
2022-10-13T19:16:16.750Z,14.18
2022-10-13T19:18:44.899Z,15.60
2022-10-13T19:21:13.185Z,18.33
2022-10-13T19:23:41.795Z,18.75
2022-10-13T19:26:14.932Z,18.83
2022-10-13T19:28:43.309Z,20.10
2022-10-13T19:31:17.728Z,21.35
2022-10-13T19:33:47.195Z,19.67
2022-10-13T19:36:33.376Z,20.30
2022-10-13T19:39:01.987Z,21.45
2022-10-13T19:41:31.758Z,22.13
2022-10-13T19:43:59.902Z,22.23
2022-10-13T19:46:28.054Z,21.95
2022-10-13T19:48:55.733Z,22.25
2022-10-13T19:51:23.241Z,21.27
2022-10-13T19:53:51.834Z,22.52
2022-10-13T19:56:27.278Z,23.42
2022-10-13T19:58:55.776Z,21.88
2022-10-13T20:01:23.631Z,22.58
2022-10-13T20:03:51.883Z,20.48
2022-10-13T20:06:20.600Z,22.00
2022-10-13T20:08:48.265Z,20.23
2022-10-13T20:11:23.018Z,22.80
2022-10-13T20:13:51.313Z,21.15
2022-10-13T20:16:22.626Z,20.30
2022-10-13T20:18:55.833Z,20.85
2022-10-13T20:21:23.455Z,20.73
2022-10-13T20:23:51.760Z,21.13
2022-10-13T20:26:20.520Z,23.25
2022-10-13T20:28:49.572Z,21.80
2022-10-13T20:31:19.153Z,23.70
2022-10-13T20:33:49.448Z,24.55
2022-10-13T20:36:19.307Z,24.50
2022-10-13T20:38:48.695Z,25.20
2022-10-13T20:41:20.468Z,27.05
2022-10-13T20:43:49.310Z,25.98
2022-10-13T20:46:19.348Z,26.75
2022-10-13T20:51:34.926Z,25.73
2022-10-13T20:54:02.390Z,24.88
2022-10-13T20:56:29.851Z,25.80
2022-10-13T20:58:57.333Z,25.80
2022-10-13T21:01:24.912Z,24.80
2022-10-13T21:03:56.128Z,23.25
2022-10-13T21:06:25.342Z,25.52
2022-10-13T21:08:53.892Z,26.63
2022-10-13T21:11:22.786Z,24.70
2022-10-13T21:13:51.857Z,26.05
2022-10-13T21:16:22.120Z,24.13
2022-10-13T21:18:51.483Z,25.13
2022-10-13T21:21:21.741Z,25.67
2022-10-13T21:23:53.665Z,24.70
2022-10-13T21:26:22.641Z,24.48
2022-10-13T21:28:51.498Z,26.50
2022-10-13T21:31:21.486Z,25.63
2022-10-13T21:33:49.833Z,26.35
2022-10-13T21:36:26.595Z,26.42
2022-10-13T21:39:02.694Z,24.40
2022-10-13T21:41:30.587Z,27.15
2022-10-13T21:43:58.607Z,27.33
2022-10-13T21:46:31.207Z,27.33
2022-10-13T21:49:01.279Z,25.88
2022-10-13T21:51:31.135Z,25.10
2022-10-13T21:54:01.778Z,25.25
2022-10-13T21:56:29.840Z,24.38
2022-10-13T21:58:57.309Z,23.25
2022-10-13T22:01:25.949Z,25.08
2022-10-13T22:03:56.504Z,24.20
2022-10-13T22:06:24.386Z,22.85
2022-10-13T22:08:53.611Z,24.63
2022-10-13T22:11:22.608Z,24.38
2022-10-13T22:13:50.217Z,24.15
2022-10-13T22:16:21.665Z,24.27
2022-10-13T22:18:49.754Z,24.80
2022-10-13T22:21:21.650Z,24.05
2022-10-13T22:23:49.847Z,24.13
2022-10-13T22:26:19.099Z,25.45
2022-10-13T22:28:48.207Z,27.92
2022-10-13T22:31:16.061Z,26.75
2022-10-13T22:33:44.782Z,29.45
2022-10-13T22:36:18.025Z,24.98
2022-10-13T22:38:47.284Z,30.05
2022-10-13T22:41:16.334Z,27.55
2022-10-13T22:43:46.551Z,26.08
2022-10-13T22:46:18.668Z,26.60
2022-10-13T22:48:46.197Z,24.10
2022-10-13T22:51:17.085Z,25.13
2022-10-13T22:53:44.740Z,23.67
2022-10-13T22:56:24.084Z,21.88
2022-10-13T22:58:53.574Z,22.00
2022-10-13T23:01:22.126Z,20.15
2022-10-13T23:03:51.665Z,18.75
2022-10-13T23:06:21.648Z,17.90
2022-10-13T23:08:49.912Z,18.75
2022-10-13T23:11:19.091Z,19.98
2022-10-13T23:13:47.262Z,17.67
2022-10-13T23:16:20.076Z,18.33
2022-10-13T23:18:47.682Z,16.02
2022-10-13T23:21:18.458Z,17.75
2022-10-13T23:23:46.465Z,16.58
2022-10-13T23:26:17.369Z,15.63
2022-10-13T23:28:45.392Z,15.30
2022-10-13T23:31:16.386Z,17.80
2022-10-13T23:33:44.656Z,17.13
2022-10-13T23:36:17.652Z,17.02
2022-10-13T23:38:45.472Z,16.15
2022-10-13T23:41:15.388Z,17.13
2022-10-13T23:43:43.843Z,16.23
2022-10-13T23:46:12.249Z,19.98
2022-10-13T23:48:40.705Z,16.05
2022-10-13T23:51:11.502Z,16.00
2022-10-13T23:53:39.790Z,15.57
2022-10-13T23:56:08.669Z,18.13
2022-10-13T23:58:37.774Z,14.27
